Nearby METAR Reports

 

KSJC - San Jose, California, USA
Distance from station: NE 14km
Updated: 26/02/2021 10:53
Clear
Clear
 Wind from S
Wind: S 6 km/h
Temperature: 8°C
Dew Point: -1°C
Humidity: 53%
Barometer: 1023 hPa
Clouds: Clear
Visibility: 16 km
2021/02/26 09:53 KSJC 260953Z AUTO 19003KT 10SM CLR 08/M01 A3021 RMK AO2 SLP228 T00781006 $
KNUQ - Moffett Nas/Mtn, California, USA
Distance from station: N 14km
Updated: 26/02/2021 10:55
Clear
Clear
 Wind from calm
Wind: Calm
Temperature: 8°C
Dew Point: 4°C
Humidity: 76%
Barometer: 1023 hPa
Clouds: Clear
Visibility: 16 km
2021/02/26 09:55 KNUQ 260955Z AUTO 00000KT 10SM CLR 08/04 A3021 RMK AO2
 
KPAO - Palo Alto, California, USA
Distance from station: NNW 23km
Updated: 26/02/2021 05:47
NOT Current

 
Visibility: 0 km
2021/02/26 04:47 KPAO 260447Z 0000KT 10SM SKC 10/04 A3020 RMK LAST
KRHV - San Jose/Reid, California, USA
Distance from station: ENE 19km
Updated: 26/02/2021 06:47
NOT Current
Clear
Clear
 Wind from calm
Wind: Calm
Temperature: 10°C
Dew Point: 0°C
Humidity: 50%
Barometer: 1022.7 hPa
Clouds: Clear
Visibility: 16 km
2021/02/26 05:47 KRHV 260547Z 00000KT 10SM SKC 10/00 A3020 RMK LAST
 
KOAK - Oakland, California, USA
Distance from station: NNW 50km
Updated: 26/02/2021 10:53
Clear
Clear
 Wind from ENE
Wind: ENE 6 km/h
Temperature: 9°C
Dew Point: 4°C
Humidity: 71%
Barometer: 1023.4 hPa
Clouds: Clear
Visibility: 16 km
2021/02/26 09:53 KOAK 260953Z 06003KT 10SM CLR 09/04 A3022 RMK AO2 SLP233 T00890044
KSQL - San Carlos Airpo, California, USA
Distance from station: NW 34km
Updated: 26/02/2021 10:55
Clear
Clear
 Wind from calm
Wind: Calm
Temperature: 8°C
Dew Point: 3°C
Humidity: 71%
Barometer: 1023.4 hPa
Clouds: Clear
Visibility: 16 km
2021/02/26 09:55 KSQL 260955Z AUTO 00000KT 10SM CLR 08/03 A3022 RMK AO2
 
KSFO - San Francisco, California, USA
Distance from station: NW 49km
Updated: 26/02/2021 10:56
Clear
Clear
 Wind from WNW
Wind: WNW 17 km/h
Temperature: 10°C
Wind Chill: 8°C
Dew Point: 7°C
Humidity: 82%
Barometer: 1023 hPa
Clouds: Clear
Visibility: 16 km
2021/02/26 09:56 KSFO 260956Z 30009KT 10SM CLR 10/07 A3021 RMK AO2 SLP229 T01000072
KE16 - San Martin, California, USA
Distance from station: ESE 43km
Updated: 26/02/2021 10:35
Clear
Clear
 Wind from NNW
Wind: NNW 6 km/h
Temperature: 4°C
Dew Point: -2°C
Humidity: 65%
Barometer: 1023.7 hPa
Clouds: Clear
Visibility: 16 km
2021/02/26 09:35 KE16 260935Z AUTO 34003KT 10SM CLR 04/M02 A3023 RMK AO2
 
KWVI - Watsonville, California, USA
Distance from station: SSE 44km
Updated: 26/02/2021 10:53
Clear
Clear
 Wind from NNW
Wind: NNW 6 km/h
Temperature: 5°C
Dew Point: -1°C
Humidity: 66%
Barometer: 1023 hPa
Clouds: Clear
Visibility: 16 km
2021/02/26 09:53 KWVI 260953Z AUTO 33003KT 10SM CLR 05/M01 A3021 RMK AO2 SLP230 T00501006
KHAF - Half Moon Bay, California, USA
Distance from station: WNW 50km
Updated: 26/02/2021 10:55
Mist, Clear
Mist, Clear
 Wind from N
Wind: N 6 km/h
Temperature: 6°C
Dew Point: 5°C
Humidity: 93%
Barometer: 1023.4 hPa
Summary: Mist
Clouds: Clear
Visibility: 6 km
2021/02/26 09:55 KHAF 260955Z AUTO 36003KT 4SM BR CLR 06/05 A3022 RMK AO2
 
KHWD - Hayward, California, USA
Distance from station: N 44km
Updated: 26/02/2021 10:54
Clear
Clear
 Wind from ENE
Wind: ENE 7 km/h
Temperature: 7°C
Wind Chill: 6°C
Dew Point: 2°C
Humidity: 71%
Barometer: 1022.7 hPa
Clouds: Clear
Visibility: 16 km
2021/02/26 09:54 KHWD 260954Z 06004KT 10SM CLR 07/02 A3020 RMK AO2 SLP238 T00720022
KLVK - Livermore, California, USA
Distance from station: NNE 51km
Updated: 26/02/2021 10:53
Clear
Clear
 Wind from calm
Wind: Calm
Temperature: 4°C
Dew Point: -2°C
Humidity: 65%
Barometer: 1022.7 hPa
Clouds: Clear
Visibility: 16 km
2021/02/26 09:53 KLVK 260953Z AUTO 00000KT 10SM CLR 04/M02 A3020 RMK AO2 SLP227 T00391022